VIDP/DEL METAR and TAF weather

Enter ICAO airport designator
Station Type Date Time Source
VIDP METAR 2024/05/28 23:30 UTC NOAA

VIDP 282330Z 15003KT 3500 HZ NSC 32/10 Q0994 NOSIG


Station Type Date Time Source
VIDP Decoded METAR 2024/05/28 23:30 UTC NOAA

New Delhi / Palam, India (VIDP) 28-34N 077-07E 233M
May 28, 2024 - 07:30 PM EDT / 2024.05.28 2330 UTC
Wind: from the SSE (150 degrees) at 3 MPH (3 KT):0
Visibility: 2 mile(s):0
Weather: haze
Temperature: 89 F (32 C)
Dew Point: 50 F (10 C)
Relative Humidity: 25%
Pressure (altimeter): 29.35 in. Hg (0994 hPa)
ob: VIDP 282330Z 15003KT 3500 HZ NSC 32/10 Q0994 NOSIG
cycle: 23

Station Type Date Time Source
VIDP TAF 2024/05/28 18:56 UTC NOAA